SVVA/VLN METAR and TAF weather

Enter ICAO airport designator
Station Type Date Time Source
SVVA METAR 2019/08/17 17:00 UTC NOAA

SVVA 171700Z /////KT 9000 -DZ OVC016 23/22 Q1017


Station Type Date Time Source
SVVA Decoded METAR 2019/08/17 17:00 UTC NOAA

Station name not available
Aug 17, 2019 - 01:00 PM EDT / 2019.08.17 1700 UTC
Visibility: 5 mile(s):0
Sky conditions: overcast
Weather: light drizzle
Temperature: 73 F (23 C)
Dew Point: 71 F (22 C)
Relative Humidity: 94%
Pressure (altimeter): 30.03 in. Hg (1017 hPa)
ob: SVVA 171700Z /////KT 9000 -DZ OVC016 23/22 Q1017
cycle: 17

Station Type Date Time Source
SVVA TAF 2019/08/17 12:59 UTC NOAA

TAF SVVA 171059Z 1712/1812 18002KT 9000 DZ BKN016 TX30/1719 TN21/1808
TEMPO 1716/1720 14003KT 9999 SCT016 BKN200

Example: see airport list